Terminal Aerodrome Forecast
Issued by NWS Jackson, MS

Home | Current Version | Previous Version | Text Only | Print | Product List | Glossary On
Versions: 1 2 3 4 5 6 7 8 9 10 11 12 13 14 15 16 17 18
000
FTUS44 KJAN 010540
TAFGWO
TAF
KGWO 010540Z 0106/0206 22005KT P6SM FEW030 SCT250
     FM011000 19004KT P6SM OVC015
     FM011500 24008KT P6SM VCSH BKN050
     FM012000 27007KT P6SM VCTS OVC050CB
     FM020200 19004KT P6SM OVC100=

USA.gov is the U.S. government's official web portal to all federal, state and local government web resources and services.